Time;durP1;ratioP1;P1;durP2;ratioP2;P2;SDS_P1;SDS_P2;PMS_P1;PMS_P2;Temp;Humidity;BMP_temperature;BMP_pressure;BME280_temperature;BME280_humidity;BME280_pressure;Samples;Min_cycle;Max_cycle;Signal;HPM_P1;HPM_P2
2023/08/31 00:02:20;;;;;;;3.13;2.08;;;;;;;18.09;93.09;99754.63;5040058;28;20022;-64
2023/08/31 00:04:45;;;;;;;5.80;2.22;;;;;;;18.08;92.87;99756.56;5046903;28;20076;-64
2023/08/31 00:07:11;;;;;;;4.63;2.22;;;;;;;18.07;93.33;99754.28;5036728;28;20096;-68
2023/08/31 00:09:36;;;;;;;3.50;2.08;;;;;;;18.07;92.52;99760.50;5042068;28;20048;-63
2023/08/31 00:12:03;;;;;;;4.50;2.40;;;;;;;18.06;93.22;99760.94;5045925;28;20506;-67
2023/08/31 00:14:28;;;;;;;4.65;2.13;;;;;;;18.06;92.95;99766.38;5029480;28;20029;-63
2023/08/31 00:16:53;;;;;;;4.50;1.90;;;;;;;18.09;92.65;99768.25;5047259;28;20041;-64
2023/08/31 00:19:19;;;;;;;4.80;2.47;;;;;;;18.03;92.80;99760.59;5041481;28;20037;-66
2023/08/31 00:21:45;;;;;;;4.15;2.17;;;;;;;18.03;92.75;99757.09;5042335;28;20031;-63
2023/08/31 00:24:10;;;;;;;3.00;1.63;;;;;;;18.05;92.62;99762.88;5033610;28;20034;-64
2023/08/31 00:26:42;;;;;;;4.38;2.08;;;;;;;18.01;92.66;99773.09;5043935;28;20087;-65
2023/08/31 00:29:10;;;;;;;5.53;2.60;;;;;;;18.00;92.78;99755.22;5036018;28;20037;-67
2023/08/31 00:31:37;;;;;;;3.72;2.17;;;;;;;17.96;92.38;99754.56;5030074;28;20033;-65
2023/08/31 00:34:04;;;;;;;3.47;1.95;;;;;;;17.97;92.90;99754.13;5020590;28;20079;-68
2023/08/31 00:36:33;;;;;;;6.05;2.90;;;;;;;17.94;92.41;99752.22;5028898;28;20124;-64
2023/08/31 00:39:05;;;;;;;2.67;1.63;;;;;;;17.92;91.99;99749.16;5018028;28;20571;-64
2023/08/31 00:41:31;;;;;;;3.67;1.60;;;;;;;17.85;92.43;99765.69;5042752;28;20505;-63
2023/08/31 00:43:56;;;;;;;5.97;2.22;;;;;;;17.81;93.24;99765.00;5026163;28;20025;-64
2023/08/31 00:46:22;;;;;;;2.63;2.03;;;;;;;17.78;92.53;99759.66;5021391;28;20471;-67
2023/08/31 00:48:47;;;;;;;3.42;1.88;;;;;;;17.73;92.33;99758.19;5033443;28;20500;-65
2023/08/31 00:51:17;;;;;;;5.35;1.77;;;;;;;17.75;92.85;99760.50;5032037;28;20382;-65
2023/08/31 00:53:42;;;;;;;2.85;1.85;;;;;;;17.74;92.40;99767.91;5045979;28;20033;-65
2023/08/31 00:56:08;;;;;;;4.43;2.40;;;;;;;17.74;92.26;99761.69;5047263;28;20066;-65
2023/08/31 00:58:33;;;;;;;4.03;2.05;;;;;;;17.66;92.20;99755.66;5031477;28;20044;-65
2023/08/31 01:01:12;;;;;;;3.10;1.75;;;;;;;17.69;92.03;99764.94;5029074;28;20516;-66
2023/08/31 01:04:08;;;;;;;4.28;1.60;;;;;;;17.63;92.15;99758.44;5035523;28;20060;-65
2023/08/31 01:06:46;;;;;;;5.32;2.08;;;;;;;17.58;92.00;99773.31;5027031;28;20048;-64
2023/08/31 01:09:18;;;;;;;2.70;1.70;;;;;;;17.57;92.17;99771.81;5028490;28;20065;-64
2023/08/31 01:11:55;;;;;;;3.17;1.95;;;;;;;17.52;92.29;99766.84;5027548;28;20037;-64
2023/08/31 01:14:34;;;;;;;2.97;1.83;;;;;;;17.51;92.46;99762.59;5051549;28;20025;-65
2023/08/31 01:17:02;;;;;;;5.57;2.15;;;;;;;17.51;92.72;99761.84;5027260;28;20041;-63
2023/08/31 01:19:39;;;;;;;2.22;1.50;;;;;;;17.51;92.88;99772.72;5028353;28;20022;-65
2023/08/31 01:22:11;;;;;;;2.75;1.83;;;;;;;17.44;92.84;99770.88;5050992;28;20048;-63
2023/08/31 01:24:37;;;;;;;;;;;;;;;17.48;92.68;99777.06;5030860;28;20378;-66
2023/08/31 01:27:03;;;;;;;2.80;1.83;;;;;;;17.49;92.12;99767.72;5025006;28;19919;-63
2023/08/31 01:29:30;;;;;;;3.72;2.33;;;;;;;17.45;91.85;99771.66;5039927;28;20029;-64
2023/08/31 01:31:55;;;;;;;4.95;1.90;;;;;;;17.44;91.86;99773.59;5033795;28;20034;-67
2023/08/31 01:34:20;;;;;;;3.70;2.10;;;;;;;17.37;92.02;99779.22;5025770;28;20048;-65
2023/08/31 01:36:52;;;;;;;3.60;2.00;;;;;;;17.35;92.29;99769.94;5050560;28;20032;-65
2023/08/31 01:39:26;;;;;;;4.57;2.00;;;;;;;17.31;92.33;99767.28;5029118;28;20431;-67
2023/08/31 01:41:57;;;;;;;6.63;2.03;;;;;;;17.28;92.24;99773.59;5047513;28;20041;-65
2023/08/31 01:44:23;;;;;;;3.75;1.67;;;;;;;17.25;92.06;99779.84;5010415;28;20474;-64
2023/08/31 01:46:54;;;;;;;3.00;1.90;;;;;;;17.27;92.49;99774.75;5044447;28;20063;-64
2023/08/31 01:49:22;;;;;;;4.55;2.00;;;;;;;17.27;91.87;99777.47;5027946;28;20033;-64
2023/08/31 01:51:49;;;;;;;2.42;1.48;;;;;;;17.19;92.45;99775.34;5048951;28;20440;-63
2023/08/31 01:54:14;;;;;;;3.17;2.05;;;;;;;17.17;92.14;99781.19;5016951;28;20051;-66
2023/08/31 01:56:40;;;;;;;5.28;2.30;;;;;;;17.16;92.30;99785.09;5032795;28;20025;-66
2023/08/31 01:59:06;;;;;;;3.97;1.90;;;;;;;17.10;92.08;99786.78;5024202;28;20040;-64
2023/08/31 02:01:36;;;;;;;3.72;2.00;;;;;;;17.07;91.65;99782.94;5029011;28;20043;-64
2023/08/31 02:04:01;;;;;;;3.05;1.65;;;;;;;17.07;92.18;99777.50;5032045;28;20279;-64
2023/08/31 02:06:27;;;;;;;4.15;2.20;;;;;;;17.07;92.43;99780.22;5029345;28;20107;-64
2023/08/31 02:08:52;;;;;;;4.35;2.45;;;;;;;17.02;92.02;99782.66;5029058;28;20063;-65
2023/08/31 02:11:17;;;;;;;3.60;1.60;;;;;;;17.00;92.05;99783.09;5031871;28;20464;-65
2023/08/31 02:13:43;;;;;;;3.40;1.88;;;;;;;17.00;92.36;99783.09;5030320;28;20116;-65
2023/08/31 02:16:08;;;;;;;2.08;1.45;;;;;;;16.98;92.37;99784.69;5031813;28;20093;-65
2023/08/31 02:18:35;;;;;;;3.28;2.08;;;;;;;16.93;91.98;99787.91;5016766;28;20028;-65
2023/08/31 02:21:00;;;;;;;2.65;1.90;;;;;;;16.88;92.20;99780.22;5027024;28;20029;-65
2023/08/31 02:23:26;;;;;;;2.72;1.65;;;;;;;16.87;92.14;99790.34;5022090;28;20536;-65
2023/08/31 02:25:51;;;;;;;1.92;1.40;;;;;;;16.87;92.34;99800.47;5033332;28;20033;-65
2023/08/31 02:28:19;;;;;;;4.75;1.60;;;;;;;16.87;91.73;99793.06;5051351;28;20031;-65
2023/08/31 02:30:46;;;;;;;2.50;1.48;;;;;;;16.82;91.89;99790.81;5049750;28;20044;-65
2023/08/31 02:33:11;;;;;;;2.67;1.52;;;;;;;16.78;92.22;99795.56;5050946;28;20033;-65
2023/08/31 02:35:38;;;;;;;3.15;1.52;;;;;;;16.78;92.03;99800.25;5049198;28;20051;-66
2023/08/31 02:38:03;;;;;;;2.03;1.38;;;;;;;16.76;91.81;99794.47;5029094;28;20129;-65
2023/08/31 02:40:29;;;;;;;1.77;1.48;;;;;;;16.75;92.03;99790.19;5047713;28;20040;-65
2023/08/31 02:42:54;;;;;;;3.05;1.65;;;;;;;16.69;92.20;99789.13;5033057;28;20040;-65
2023/08/31 02:45:20;;;;;;;2.53;1.60;;;;;;;16.66;92.07;99795.41;5032280;28;20025;-65
2023/08/31 02:47:46;;;;;;;2.92;1.38;;;;;;;16.61;91.73;99795.88;5047280;28;20041;-65
2023/08/31 02:50:11;;;;;;;3.22;1.70;;;;;;;16.61;91.88;99799.38;5032656;28;20553;-65
2023/08/31 02:52:37;;;;;;;2.95;1.52;;;;;;;16.59;92.15;99801.75;5027974;28;20033;-65
2023/08/31 02:55:02;;;;;;;3.40;1.52;;;;;;;16.58;92.15;99797.50;5029064;28;20036;-65
2023/08/31 02:57:28;;;;;;;3.00;1.73;;;;;;;16.57;91.77;99793.25;5022935;28;20021;-65
2023/08/31 02:59:56;;;;;;;2.97;1.73;;;;;;;16.52;92.02;99799.16;5024937;28;20044;-65
2023/08/31 03:02:22;;;;;;;1.83;1.42;;;;;;;16.51;92.08;99800.34;5043519;28;20082;-65
2023/08/31 03:04:47;;;;;;;2.90;1.73;;;;;;;16.54;91.89;99798.75;5041581;28;20382;-65
2023/08/31 03:07:33;;;;;;;2.30;1.50;;;;;;;16.51;91.93;99805.03;5030523;28;20135;-65
2023/08/31 03:09:58;;;;;;;3.53;1.88;;;;;;;16.47;91.96;99804.28;4986771;28;20046;-65
2023/08/31 03:12:24;;;;;;;3.55;1.58;;;;;;;16.41;92.38;99805.94;4968582;28;20058;-65
2023/08/31 03:14:50;;;;;;;2.78;1.25;;;;;;;16.37;92.01;99807.94;4979637;28;20104;-65
2023/08/31 03:17:16;;;;;;;2.20;1.27;;;;;;;16.38;92.44;99810.25;4972806;28;20778;-65
2023/08/31 03:19:42;;;;;;;3.50;2.08;;;;;;;16.36;92.06;99812.59;4988189;28;20114;-65
2023/08/31 03:22:07;;;;;;;2.03;1.42;;;;;;;16.28;92.21;99814.69;4967885;28;20042;-65
2023/08/31 03:24:33;;;;;;;3.08;1.60;;;;;;;16.35;91.79;99815.75;4988931;28;20090;-66
2023/08/31 03:26:58;;;;;;;3.55;1.65;;;;;;;16.28;92.11;99811.97;4988638;28;20165;-63
2023/08/31 03:29:25;;;;;;;4.65;1.50;;;;;;;16.29;92.13;99818.16;4966900;28;20042;-65
2023/08/31 03:31:51;;;;;;;2.83;1.77;;;;;;;16.27;92.29;99824.03;4960182;28;20062;-64
2023/08/31 03:34:17;;;;;;;2.80;1.38;;;;;;;16.27;91.89;99823.25;4966312;28;20116;-63
2023/08/31 03:36:43;;;;;;;3.08;1.23;;;;;;;16.23;92.11;99836.13;4976180;28;20121;-65
2023/08/31 03:39:09;;;;;;;5.05;1.40;;;;;;;16.25;91.56;99825.63;4970144;28;20140;-68
2023/08/31 03:41:35;;;;;;;1.40;1.13;;;;;;;16.19;91.70;99836.19;4981314;28;20034;-67
2023/08/31 03:44:01;;;;;;;3.28;1.23;;;;;;;16.14;92.12;99831.19;4980079;28;20654;-66
2023/08/31 03:46:27;;;;;;;1.85;1.23;;;;;;;16.17;91.84;99830.41;4989439;28;20049;-65
2023/08/31 03:48:52;;;;;;;1.73;1.10;;;;;;;16.05;92.25;99822.03;5028574;28;20025;-66
2023/08/31 03:51:18;;;;;;;3.38;1.90;;;;;;;15.98;92.35;99828.38;5028856;28;20037;-66
2023/08/31 03:53:44;;;;;;;2.42;1.30;;;;;;;15.94;92.22;99835.78;5024417;28;20108;-65
2023/08/31 03:56:11;;;;;;;8.93;1.80;;;;;;;15.92;92.12;99829.22;5030363;28;20433;-64
2023/08/31 03:58:37;;;;;;;2.55;1.58;;;;;;;15.79;92.19;99823.63;5019539;28;20059;-64
2023/08/31 04:01:03;;;;;;;3.60;1.77;;;;;;;15.82;92.44;99819.28;5029528;28;20116;-68
2023/08/31 04:03:29;;;;;;;3.03;1.63;;;;;;;15.85;92.42;99819.22;5036288;28;20041;-64
2023/08/31 04:05:58;;;;;;;1.67;1.58;;;;;;;15.84;92.03;99815.00;5025549;28;20025;-65
2023/08/31 04:08:23;;;;;;;3.22;1.42;;;;;;;15.82;92.17;99814.63;5018430;28;20025;-73
2023/08/31 04:10:49;;;;;;;2.13;1.25;;;;;;;15.69;91.80;99827.25;5025835;28;20469;-65
2023/08/31 04:13:14;;;;;;;3.63;1.52;;;;;;;15.66;92.39;99825.31;5027377;28;20036;-67
2023/08/31 04:15:40;;;;;;;1.85;1.40;;;;;;;15.65;91.90;99821.09;5049662;28;20514;-64
2023/08/31 04:18:05;;;;;;;2.88;1.65;;;;;;;15.58;92.08;99831.28;5029619;28;20033;-64
2023/08/31 04:20:33;;;;;;;2.10;1.20;;;;;;;15.54;91.93;99828.63;5051582;28;20029;-67
2023/08/31 04:22:58;;;;;;;1.67;1.30;;;;;;;15.47;92.28;99834.13;5020529;28;20025;-64
2023/08/31 04:25:24;;;;;;;3.17;1.25;;;;;;;15.48;92.28;99840.31;5025489;28;20033;-64
2023/08/31 04:27:49;;;;;;;1.33;1.10;;;;;;;15.42;92.61;99840.00;5051490;28;20025;-67
2023/08/31 04:30:15;;;;;;;1.55;0.95;;;;;;;15.39;92.47;99848.91;5049890;28;20147;-65
2023/08/31 04:32:41;;;;;;;5.25;1.05;;;;;;;15.50;92.16;99851.53;5035175;28;20102;-64
2023/08/31 04:35:06;;;;;;;4.50;1.40;;;;;;;15.47;91.82;99853.13;5049116;28;20104;-65
2023/08/31 04:37:33;;;;;;;5.35;1.52;;;;;;;15.45;91.87;99854.72;5048431;28;20041;-65
2023/08/31 04:39:58;;;;;;;1.77;1.02;;;;;;;15.52;91.69;99860.03;5050164;28;20036;-65
2023/08/31 04:42:24;;;;;;;1.00;0.73;;;;;;;15.47;91.80;99860.47;5045874;28;20044;-65
2023/08/31 04:44:50;;;;;;;1.30;0.93;;;;;;;15.48;91.67;99865.53;5046204;28;20036;-66
2023/08/31 04:47:15;;;;;;;1.90;1.10;;;;;;;15.43;91.91;99865.97;5050360;28;20123;-66
2023/08/31 04:49:41;;;;;;;2.95;1.48;;;;;;;15.42;91.73;99869.09;5045332;28;20055;-66
2023/08/31 04:52:07;;;;;;;2.70;1.67;;;;;;;15.39;92.15;99873.34;5035878;28;20029;-66
2023/08/31 04:54:32;;;;;;;2.90;1.30;;;;;;;15.37;92.20;99868.31;5048643;28;20098;-66
2023/08/31 04:56:57;;;;;;;2.65;1.45;;;;;;;15.39;92.35;99882.25;5053570;28;20545;-66
2023/08/31 04:59:23;;;;;;;1.73;1.17;;;;;;;15.37;91.99;99875.69;5052388;28;20041;-67
2023/08/31 05:01:48;;;;;;;3.42;1.55;;;;;;;15.39;92.78;99884.97;5051408;28;20029;-66
2023/08/31 05:04:14;;;;;;;4.65;1.25;;;;;;;15.44;92.25;99886.50;5047914;28;20397;-66
2023/08/31 05:06:39;;;;;;;1.75;1.20;;;;;;;15.44;92.50;99897.38;5052039;28;20033;-66
2023/08/31 05:09:05;;;;;;;1.27;1.02;;;;;;;15.49;92.46;99902.34;5052971;28;20464;-66
2023/08/31 05:11:31;;;;;;;1.13;1.02;;;;;;;15.54;91.85;99906.56;5034847;28;20204;-66
2023/08/31 05:13:56;;;;;;;1.40;1.10;;;;;;;15.59;92.20;99900.66;5036241;28;20124;-66
2023/08/31 05:16:22;;;;;;;1.52;1.30;;;;;;;15.57;92.32;99903.78;5033847;28;20087;-65
2023/08/31 05:18:51;;;;;;;1.48;1.00;;;;;;;15.60;92.03;99908.38;5033977;28;20090;-65
2023/08/31 05:21:17;;;;;;;2.75;1.58;;;;;;;15.55;92.01;99908.84;5051469;28;20119;-65
2023/08/31 05:23:42;;;;;;;1.27;1.05;;;;;;;15.56;92.55;99915.84;5045922;28;20446;-65
2023/08/31 05:26:07;;;;;;;2.33;1.13;;;;;;;15.61;92.11;99909.94;5037513;28;20021;-65
2023/08/31 05:28:33;;;;;;;2.70;1.10;;;;;;;15.67;92.74;99912.97;5037979;28;20110;-66
2023/08/31 05:31:01;;;;;;;1.48;0.93;;;;;;;15.70;91.87;99912.94;5050519;28;20544;-65
2023/08/31 05:33:28;;;;;;;4.97;1.08;;;;;;;15.74;92.11;99924.50;5043259;28;20029;-65
2023/08/31 05:35:54;;;;;;;2.38;1.10;;;;;;;15.74;92.07;99927.22;5048048;28;20124;-65
2023/08/31 05:38:20;;;;;;;1.20;0.85;;;;;;;15.80;92.27;99930.25;5047876;28;20056;-65
2023/08/31 05:40:46;;;;;;;0.82;0.68;;;;;;;15.83;91.58;99938.34;5047702;28;20082;-65
2023/08/31 05:43:15;;;;;;;1.67;1.33;;;;;;;15.86;92.05;99931.34;5046206;28;20119;-65
2023/08/31 05:45:41;;;;;;;2.38;1.35;;;;;;;15.87;92.32;99939.06;5049460;28;20461;-66
2023/08/31 05:48:07;;;;;;;1.58;0.98;;;;;;;15.89;92.36;99931.28;5051534;28;20052;-66
2023/08/31 05:50:33;;;;;;;2.40;1.60;;;;;;;15.83;92.29;99922.06;5048997;28;20063;-65
2023/08/31 05:52:58;;;;;;;4.53;1.20;;;;;;;15.89;92.31;99933.25;5046008;28;20065;-65
2023/08/31 05:55:24;;;;;;;2.33;1.20;;;;;;;15.87;92.10;99928.22;5052726;28;20035;-65
2023/08/31 05:57:49;;;;;;;1.33;0.80;;;;;;;15.89;91.94;99925.13;5053037;28;20047;-65
2023/08/31 06:00:16;;;;;;;1.30;1.20;;;;;;;15.93;92.42;99932.03;5033486;28;20033;-66
2023/08/31 06:02:43;;;;;;;1.65;1.08;;;;;;;15.95;91.92;99937.81;5031864;28;20098;-66
2023/08/31 06:05:09;;;;;;;3.50;0.90;;;;;;;15.97;92.09;99940.13;5033988;28;20021;-65
2023/08/31 06:07:34;;;;;;;0.85;0.80;;;;;;;15.97;92.42;99943.59;5049005;28;20120;-65
2023/08/31 06:09:59;;;;;;;1.42;1.00;;;;;;;16.01;92.61;99944.34;5041238;28;20112;-65
2023/08/31 06:12:25;;;;;;;1.30;0.82;;;;;;;16.05;92.67;99945.06;5050691;28;20473;-65
2023/08/31 06:14:50;;;;;;;2.58;1.10;;;;;;;16.11;92.14;99940.72;5032811;28;20032;-65
2023/08/31 06:17:16;;;;;;;1.92;1.00;;;;;;;16.14;92.10;99941.84;5052614;28;20489;-65
2023/08/31 06:19:42;;;;;;;3.40;1.08;;;;;;;16.18;91.73;99946.03;5052206;28;20037;-66
2023/08/31 06:22:08;;;;;;;1.75;1.05;;;;;;;16.20;92.38;99945.66;5050442;28;20444;-66
2023/08/31 06:24:33;;;;;;;1.60;1.00;;;;;;;16.16;92.08;99945.66;5051312;28;20017;-66
2023/08/31 06:26:59;;;;;;;5.07;1.05;;;;;;;16.24;92.22;99946.34;5043977;28;20486;-66
2023/08/31 06:29:25;;;;;;;1.55;0.80;;;;;;;16.28;91.96;99941.63;5038674;28;20040;-66
2023/08/31 06:31:50;;;;;;;1.38;1.10;;;;;;;16.35;92.36;99948.91;5045039;28;20278;-66
2023/08/31 06:34:15;;;;;;;1.63;0.73;;;;;;;16.50;92.41;99948.31;5023289;28;20505;-66
2023/08/31 06:36:41;;;;;;;1.42;0.75;;;;;;;16.66;91.54;99943.03;5051658;28;20504;-66
2023/08/31 06:39:07;;;;;;;2.08;1.10;;;;;;;16.84;91.52;99948.19;5050258;28;20099;-66
2023/08/31 06:41:32;;;;;;;3.55;0.80;;;;;;;16.88;90.52;99943.44;5027358;28;20028;-66
2023/08/31 06:43:58;;;;;;;3.17;1.27;;;;;;;16.96;90.08;99950.28;5050156;28;20084;-66
2023/08/31 06:46:23;;;;;;;9.30;0.88;;;;;;;17.04;90.00;99954.44;5051220;28;20020;-66
2023/08/31 06:48:49;;;;;;;1.38;0.90;;;;;;;17.14;90.02;99950.75;5051769;28;20493;-67
2023/08/31 06:51:15;;;;;;;1.30;1.00;;;;;;;17.26;89.50;99950.16;5050283;28;20493;-67
2023/08/31 06:53:43;;;;;;;1.15;0.80;;;;;;;17.42;89.41;99949.47;5050949;28;20033;-67
2023/08/31 06:56:08;;;;;;;1.42;0.70;;;;;;;17.42;89.26;99952.94;5048815;28;20486;-67
2023/08/31 06:58:34;;;;;;;1.38;0.80;;;;;;;17.66;88.73;99950.97;5051735;28;20039;-67
2023/08/31 07:00:59;;;;;;;0.73;0.70;;;;;;;17.86;88.16;99949.78;5049615;28;20075;-68
2023/08/31 07:03:25;;;;;;;1.27;0.70;;;;;;;18.07;87.89;99955.94;5051278;28;20039;-67
2023/08/31 07:05:50;;;;;;;2.97;0.98;;;;;;;18.25;87.21;99956.34;5020379;28;20048;-66
2023/08/31 07:08:15;;;;;;;1.90;1.10;;;;;;;18.28;86.19;99958.22;5050881;28;20021;-67
2023/08/31 07:10:41;;;;;;;2.90;0.93;;;;;;;18.37;85.83;99953.69;5048332;28;20029;-68
2023/08/31 07:13:07;;;;;;;0.93;0.70;;;;;;;18.57;85.81;99961.84;5051140;28;20120;-68
2023/08/31 07:15:33;;;;;;;1.95;0.80;;;;;;;18.75;85.09;99962.22;5048994;28;20116;-66
2023/08/31 07:17:59;;;;;;;1.38;0.60;;;;;;;18.89;82.61;99961.88;5044458;28;20039;-67
2023/08/31 07:20:25;;;;;;;1.48;0.80;;;;;;;18.96;81.24;99964.41;5035688;28;20045;-67
2023/08/31 07:22:51;;;;;;;2.25;0.77;;;;;;;18.94;81.04;99974.97;5045201;28;20037;-66
2023/08/31 07:25:16;;;;;;;0.90;0.65;;;;;;;19.08;80.46;99958.25;5051263;28;20025;-68
2023/08/31 07:27:42;;;;;;;0.82;0.38;;;;;;;19.18;79.79;99957.19;5041850;28;20093;-67
2023/08/31 07:30:07;;;;;;;2.08;0.73;;;;;;;19.26;79.49;99968.72;5041923;28;20107;-67
2023/08/31 07:32:33;;;;;;;1.55;0.68;;;;;;;19.38;79.28;99963.31;5040839;28;20037;-65
2023/08/31 07:34:59;;;;;;;5.43;0.70;;;;;;;19.56;78.67;99971.03;5049603;28;20041;-67
2023/08/31 07:37:24;;;;;;;1.33;0.95;;;;;;;19.77;76.64;99967.72;5049357;28;20049;-67
2023/08/31 07:39:50;;;;;;;0.47;0.47;;;;;;;19.80;76.03;99972.34;5050824;28;20480;-67
2023/08/31 07:42:16;;;;;;;0.52;0.52;;;;;;;19.90;76.06;99973.22;5048941;28;20514;-67
2023/08/31 07:44:41;;;;;;;1.30;0.65;;;;;;;19.98;75.71;99977.25;5048300;28;20074;-66
2023/08/31 07:47:07;;;;;;;0.43;0.43;;;;;;;20.08;75.66;99968.00;5049656;28;20485;-67
2023/08/31 07:49:33;;;;;;;1.55;0.73;;;;;;;20.21;75.96;99971.56;5050751;28;20037;-67
2023/08/31 07:52:02;;;;;;;0.73;0.50;;;;;;;20.44;74.07;99974.72;5050771;28;20033;-67
2023/08/31 07:54:28;;;;;;;1.05;0.40;;;;;;;20.52;73.47;99967.81;5029315;28;20044;-66
2023/08/31 07:56:53;;;;;;;0.40;0.32;;;;;;;20.60;72.95;99976.56;5034305;28;20045;-67
2023/08/31 07:59:19;;;;;;;0.70;0.32;;;;;;;20.69;71.39;99971.22;5025355;28;20038;-67
2023/08/31 08:01:45;;;;;;;0.35;0.32;;;;;;;20.77;70.78;99977.97;5031139;28;20036;-68
2023/08/31 08:04:13;;;;;;;0.63;0.40;;;;;;;20.88;70.72;99975.66;5041515;28;20060;-66
2023/08/31 08:06:59;;;;;;;0.20;0.20;;;;;;;20.95;70.04;99991.84;5046566;28;20021;-67
2023/08/31 08:09:24;;;;;;;0.55;0.47;;;;;;;20.85;69.71;99987.50;4928794;29;20135;-66
2023/08/31 08:11:50;;;;;;;0.30;0.30;;;;;;;20.73;70.12;99984.78;4922329;29;20552;-67
2023/08/31 08:14:16;;;;;;;0.77;0.43;;;;;;;20.66;70.93;99996.72;4923492;29;20070;-67
2023/08/31 08:16:42;;;;;;;0.80;0.45;;;;;;;20.52;71.13;99995.19;4930779;29;20086;-67
2023/08/31 08:19:28;;;;;;;1.33;0.55;;;;;;;20.60;70.31;99991.03;4925186;29;20122;-67
2023/08/31 08:21:53;;;;;;;1.92;0.70;;;;;;;20.57;69.93;100007.56;4855340;29;20468;-67
2023/08/31 08:24:19;;;;;;;0.85;0.50;;;;;;;20.59;70.12;100002.41;4840413;29;20042;-67
2023/08/31 08:26:44;;;;;;;2.80;0.40;;;;;;;20.64;68.70;99999.91;4856032;29;20037;-67
2023/08/31 08:29:10;;;;;;;0.40;0.40;;;;;;;20.58;67.27;99992.66;4855495;29;20547;-67
2023/08/31 08:31:35;;;;;;;2.47;0.40;;;;;;;20.48;67.28;99991.78;4856317;29;20388;-66
2023/08/31 08:34:01;;;;;;;1.15;0.45;;;;;;;20.54;67.58;99994.75;4855774;29;20057;-66
2023/08/31 08:36:26;;;;;;;0.82;0.40;;;;;;;20.64;67.99;99993.66;4855525;29;20484;-67
2023/08/31 08:38:52;;;;;;;2.30;0.50;;;;;;;20.68;67.47;99995.06;4850242;29;20049;-66
2023/08/31 08:41:23;;;;;;;2.45;0.60;;;;;;;20.50;67.35;99991.34;4844384;29;20450;-66
2023/08/31 08:43:50;;;;;;;0.30;0.30;;;;;;;20.22;68.56;99994.97;4854785;29;20045;-66
2023/08/31 08:46:16;;;;;;;1.65;0.35;;;;;;;20.17;69.39;99984.53;4896145;29;20423;-66
2023/08/31 08:48:42;;;;;;;1.27;0.52;;;;;;;20.15;70.23;99984.94;4950124;29;20066;-68
2023/08/31 08:51:08;;;;;;;2.85;0.50;;;;;;;20.10;70.94;99988.25;4950150;29;20035;-65
2023/08/31 08:53:34;;;;;;;0.40;0.30;;;;;;;20.11;71.37;99991.75;4949418;29;20070;-66
2023/08/31 08:56:00;;;;;;;0.80;0.38;;;;;;;20.08;70.97;99995.34;4949741;29;20047;-66
2023/08/31 08:58:25;;;;;;;0.65;0.40;;;;;;;20.03;69.94;100001.34;4979999;28;20129;-67
2023/08/31 09:00:54;;;;;;;0.75;0.38;;;;;;;20.06;70.87;99995.00;5044638;28;20028;-67
2023/08/31 09:03:19;;;;;;;0.88;0.40;;;;;;;19.90;69.02;99992.38;5047258;28;20041;-67
2023/08/31 09:05:45;;;;;;;0.50;0.40;;;;;;;19.98;70.60;99999.13;5052337;28;20032;-67
2023/08/31 09:08:12;;;;;;;2.45;0.63;;;;;;;20.02;69.87;99991.59;5051560;28;20048;-67
2023/08/31 09:10:40;;;;;;;0.30;0.30;;;;;;;20.00;69.84;99994.00;5049612;28;20040;-67
2023/08/31 09:13:09;;;;;;;1.13;0.57;;;;;;;19.92;70.10;100009.84;5041289;28;20047;-67
2023/08/31 09:15:42;;;;;;;0.75;0.47;;;;;;;20.00;71.12;100004.94;5049092;28;20013;-68
2023/08/31 09:18:08;;;;;;;0.45;0.40;;;;;;;20.21;70.95;100007.09;5044738;28;20440;-67
2023/08/31 09:20:47;;;;;;;3.03;0.70;;;;;;;20.30;69.42;100002.53;5048759;28;20119;-67
2023/08/31 09:23:13;;;;;;;3.63;0.60;;;;;;;20.38;68.46;100009.28;5045667;28;20436;-68
2023/08/31 09:25:49;;;;;;;5.50;0.90;;;;;;;20.28;67.72;100009.63;5038309;28;20047;-67
2023/08/31 09:28:21;;;;;;;0.73;0.55;;;;;;;20.03;67.93;100007.59;5022826;28;20037;-67
2023/08/31 09:30:48;;;;;;;0.52;0.38;;;;;;;19.89;69.35;100010.72;5052794;28;20401;-67
2023/08/31 09:33:16;;;;;;;0.45;0.45;;;;;;;19.88;69.18;100022.84;5045811;28;20037;-67
2023/08/31 09:36:03;;;;;;;0.70;0.63;;;;;;;19.66;69.53;100019.19;5033720;28;20045;-67
2023/08/31 09:38:29;;;;;;;7.95;0.77;;;;;;;19.56;70.15;100012.81;5050661;28;20110;-65
2023/08/31 09:41:06;;;;;;;2.35;0.55;;;;;;;19.56;70.27;100020.22;5035046;28;20028;-67
2023/08/31 09:43:31;;;;;;;1.38;1.00;;;;;;;19.65;70.79;100023.09;5051734;28;20036;-66
2023/08/31 09:45:59;;;;;;;0.60;0.60;;;;;;;19.70;70.40;100009.66;5051468;28;20397;-67
2023/08/31 09:48:26;;;;;;;0.40;0.40;;;;;;;20.02;71.36;100014.25;5050492;28;20021;-66
2023/08/31 09:50:54;;;;;;;0.77;0.52;;;;;;;20.36;70.29;100010.94;5034396;28;20052;-67
2023/08/31 09:53:20;;;;;;;2.22;0.88;;;;;;;20.70;70.00;100013.78;5051162;28;20024;-65
2023/08/31 09:55:48;;;;;;;0.82;0.60;;;;;;;20.93;69.37;100010.69;5050594;28;20045;-67
2023/08/31 09:58:19;;;;;;;1.05;0.73;;;;;;;21.01;67.22;100011.25;5052471;28;20470;-67
2023/08/31 10:00:45;;;;;;;4.20;0.73;;;;;;;21.05;67.05;100015.44;5052602;28;20041;-67
2023/08/31 10:03:15;;;;;;;0.80;0.60;;;;;;;20.93;65.39;100013.44;5052575;28;20072;-67
2023/08/31 10:05:40;;;;;;;0.40;0.40;;;;;;;20.90;65.92;100011.59;5051213;28;20120;-67
2023/08/31 10:08:07;;;;;;;2.75;0.43;;;;;;;20.63;65.60;100003.06;5048690;28;20104;-68
2023/08/31 10:10:33;;;;;;;1.00;0.82;;;;;;;20.61;66.31;100010.97;5050818;28;20413;-66
2023/08/31 10:13:00;;;;;;;0.52;0.35;;;;;;;20.57;65.76;100021.25;5048923;28;20021;-66
2023/08/31 10:15:31;;;;;;;0.63;0.40;;;;;;;20.37;66.53;100015.22;5051520;28;20033;-67
2023/08/31 10:17:58;;;;;;;0.93;0.60;;;;;;;20.35;68.01;100020.34;5050739;28;20151;-64
2023/08/31 10:20:23;;;;;;;1.00;0.65;;;;;;;20.35;68.50;100023.84;5031484;28;20029;-66
2023/08/31 10:22:49;;;;;;;1.05;0.60;;;;;;;20.35;68.69;100020.34;5045905;28;20021;-66
2023/08/31 10:25:14;;;;;;;0.30;0.30;;;;;;;20.36;67.49;100019.16;5047008;28;20057;-67
2023/08/31 10:27:47;;;;;;;0.68;0.32;;;;;;;20.31;67.55;100016.94;5051537;28;20124;-67
2023/08/31 10:30:21;;;;;;;1.02;0.43;;;;;;;20.27;67.94;100019.00;5052305;28;20401;-67
2023/08/31 10:33:01;;;;;;;1.90;0.60;;;;;;;20.22;66.61;100022.31;5049719;28;20075;-68
2023/08/31 10:35:41;;;;;;;0.70;0.52;;;;;;;20.40;67.00;100022.56;5048889;28;20489;-67
2023/08/31 10:38:14;;;;;;;0.43;0.30;;;;;;;20.66;66.81;100010.41;5050494;28;20032;-66
2023/08/31 10:40:39;;;;;;;0.98;0.40;;;;;;;21.07;66.06;100015.75;5049275;28;20125;-67
2023/08/31 10:43:14;;;;;;;0.32;0.22;;;;;;;21.48;65.24;100018.28;5049019;28;20104;-67
2023/08/31 10:45:44;;;;;;;0.73;0.43;;;;;;;21.96;61.75;100016.19;5049567;28;20033;-66
2023/08/31 10:48:09;;;;;;;0.60;0.30;;;;;;;22.09;60.26;100020.41;5050442;28;20513;-66
2023/08/31 10:50:41;;;;;;;1.05;0.60;;;;;;;22.35;59.01;100012.78;5043267;28;20064;-67
2023/08/31 10:53:11;;;;;;;0.50;0.43;;;;;;;22.30;58.97;100011.38;5036419;28;20029;-67
2023/08/31 10:55:53;;;;;;;0.40;0.40;;;;;;;22.32;59.18;100019.13;5047503;28;20124;-66
2023/08/31 10:58:18;;;;;;;1.20;0.55;;;;;;;22.29;58.04;100015.34;5046449;28;20400;-66
2023/08/31 11:01:03;;;;;;;2.17;0.68;;;;;;;22.33;59.49;100023.44;5051133;28;20028;-65
2023/08/31 11:03:30;;;;;;;0.77;0.55;;;;;;;22.44;57.45;100010.06;5032904;28;20039;-67
2023/08/31 11:05:55;;;;;;;0.88;0.45;;;;;;;22.85;56.29;100006.88;5044873;28;20029;-67
2023/08/31 11:08:27;;;;;;;0.55;0.50;;;;;;;23.15;56.63;100013.50;5048817;28;20090;-67
2023/08/31 11:10:52;;;;;;;0.57;0.43;;;;;;;23.36;53.86;100018.16;5050522;28;20033;-65
2023/08/31 11:13:23;;;;;;;0.63;0.52;;;;;;;23.65;53.25;100021.22;5046840;28;20052;-67
2023/08/31 11:15:49;;;;;;;0.38;0.38;;;;;;;23.62;53.38;100013.09;5050215;28;20071;-66
2023/08/31 11:18:17;;;;;;;1.15;0.95;;;;;;;23.95;52.98;100013.97;5046109;28;20041;-67
2023/08/31 11:20:47;;;;;;;0.65;0.40;;;;;;;24.11;53.46;100013.69;5049947;28;20436;-66
2023/08/31 11:23:12;;;;;;;2.17;0.70;;;;;;;24.13;53.90;100017.50;5046372;28;20079;-64
2023/08/31 11:25:38;;;;;;;0.50;0.50;;;;;;;24.23;53.22;100012.72;5035216;28;20425;-67
2023/08/31 11:28:26;;;;;;;2.47;0.57;;;;;;;23.98;52.21;100015.81;5025930;28;20613;-67
2023/08/31 11:30:51;;;;;;;1.45;1.00;;;;;;;23.82;52.58;100010.63;4936989;28;20102;-66
2023/08/31 11:33:17;;;;;;;0.52;0.52;;;;;;;23.48;52.54;100019.22;4939707;28;20070;-67